Terminal Aerodrome Forecast
Issued by NWS Bismarck, ND

Home | Current Version | Previous Version | Text Only | Print | Product List | Glossary On
Versions: 1 2 3 4 5 6 7 8 9 10 11 12
933
FTUS43 KBIS 291723 AAB
TAFBIS
TAF AMD
KBIS 291723Z 2917/3018 16013G21KT P6SM SKC
     FM300000 14008KT P6SM SKC
     FM300600 13007KT P6SM FEW200 WS020/17040KT
     FM301300 13010G16KT P6SM BKN140=

USA.gov is the U.S. government's official web portal to all federal, state and local government web resources and services.